createdAt,value
2023-04-09T00:01:12.025Z,15.00
2023-04-09T00:06:17.739Z,15.60
2023-04-09T00:11:23.192Z,13.90
2023-04-09T00:16:28.577Z,15.10
2023-04-09T00:21:33.902Z,14.20
2023-04-09T00:26:39.435Z,18.10
2023-04-09T00:31:45.013Z,15.60
2023-04-09T00:36:50.652Z,14.30
2023-04-09T00:41:59.023Z,16.80
2023-04-09T00:47:05.319Z,17.90
2023-04-09T00:52:11.214Z,19.30
2023-04-09T00:57:16.886Z,18.10
2023-04-09T01:02:22.411Z,16.50
2023-04-09T01:07:36.168Z,16.80
2023-04-09T01:12:54.612Z,18.80
2023-04-09T01:18:06.783Z,16.60
2023-04-09T01:23:18.655Z,16.10
2023-04-09T01:28:30.434Z,16.10
2023-04-09T01:33:38.013Z,15.90
2023-04-09T01:38:45.410Z,17.00
2023-04-09T01:43:52.240Z,14.00
2023-04-09T01:48:58.660Z,17.20
2023-04-09T01:54:04.480Z,17.20
2023-04-09T01:59:10.322Z,16.00
2023-04-09T02:04:22.886Z,15.70
2023-04-09T02:09:31.543Z,16.70
2023-04-09T02:14:37.554Z,16.80
2023-04-09T02:19:47.660Z,16.00
2023-04-09T02:24:53.159Z,13.60
2023-04-09T02:29:58.550Z,15.90
2023-04-09T02:35:04.447Z,18.60
2023-04-09T02:40:11.961Z,16.80
2023-04-09T02:45:17.404Z,16.00
2023-04-09T02:50:23.194Z,18.00
2023-04-09T02:55:30.357Z,17.90
2023-04-09T03:00:36.045Z,21.30
2023-04-09T03:05:41.571Z,17.90
2023-04-09T03:10:47.020Z,19.20
2023-04-09T03:15:54.149Z,23.40
2023-04-09T03:20:59.727Z,21.40
2023-04-09T03:26:06.823Z,19.30
2023-04-09T03:31:18.505Z,25.80
2023-04-09T03:36:24.704Z,19.10
2023-04-09T03:41:35.689Z,23.70
2023-04-09T03:46:47.577Z,20.40
2023-04-09T03:51:55.177Z,19.30
2023-04-09T03:57:03.666Z,19.30
2023-04-09T04:02:09.316Z,19.90
2023-04-09T04:07:17.087Z,23.50
2023-04-09T04:12:33.926Z,27.40
2023-04-09T04:17:46.172Z,29.40
2023-04-09T04:23:02.039Z,21.60
2023-04-09T04:28:08.094Z,21.80
2023-04-09T04:33:17.661Z,20.20
2023-04-09T04:38:27.697Z,22.20
2023-04-09T04:43:33.925Z,23.30
2023-04-09T04:48:39.672Z,22.00
2023-04-09T04:53:45.514Z,20.90
2023-04-09T04:58:52.379Z,31.00
2023-04-09T05:03:58.730Z,26.80
2023-04-09T05:09:08.957Z,28.10
2023-04-09T05:14:21.526Z,32.40
2023-04-09T05:19:27.106Z,27.90
2023-04-09T05:24:38.702Z,32.50
2023-04-09T05:29:44.625Z,28.40
2023-04-09T05:34:50.848Z,32.40
2023-04-09T05:48:43.363Z,24.50
2023-04-09T05:53:50.006Z,25.60
2023-04-09T05:58:55.996Z,27.60
2023-04-09T06:04:02.190Z,19.10
2023-04-09T06:09:08.924Z,15.40
2023-04-09T06:14:18.460Z,11.90
2023-04-09T06:19:24.120Z,10.90
2023-04-09T06:24:31.301Z,12.90
2023-04-09T06:29:36.846Z,32.50
2023-04-09T06:34:42.692Z,25.00
2023-04-09T06:40:00.632Z,16.50
2023-04-09T06:45:08.788Z,21.20
2023-04-09T06:50:14.505Z,18.80
2023-04-09T06:55:20.353Z,19.10
2023-04-09T07:00:26.103Z,16.30
2023-04-09T07:05:31.674Z,16.30
2023-04-09T07:10:37.241Z,15.60
2023-04-09T07:15:42.853Z,16.30
2023-04-09T07:20:48.509Z,18.10
2023-04-09T07:25:54.394Z,16.10
2023-04-09T07:31:02.811Z,17.90
2023-04-09T07:36:08.626Z,18.40
2023-04-09T07:41:17.305Z,15.80
2023-04-09T07:46:23.022Z,13.30
2023-04-09T07:51:28.622Z,10.40
2023-04-09T07:56:33.966Z,10.90
2023-04-09T08:01:43.737Z,14.40
2023-04-09T08:06:55.729Z,9.80
2023-04-09T08:12:01.379Z,7.90
2023-04-09T08:17:14.137Z,7.90
2023-04-09T08:22:20.072Z,8.20
2023-04-09T08:27:25.554Z,10.00
2023-04-09T08:32:31.577Z,7.90
2023-04-09T08:37:37.082Z,9.00
2023-04-09T08:42:46.431Z,10.10
2023-04-09T08:47:53.316Z,9.60
2023-04-09T08:53:02.363Z,9.20
2023-04-09T08:58:09.596Z,11.10
2023-04-09T09:03:15.197Z,9.70
2023-04-09T09:08:26.840Z,10.60
2023-04-09T09:13:32.283Z,10.70
2023-04-09T09:18:42.101Z,14.10
2023-04-09T09:23:49.670Z,10.90
2023-04-09T09:28:56.503Z,11.40
2023-04-09T09:34:11.957Z,10.80
2023-04-09T09:39:18.040Z,11.90
2023-04-09T09:44:38.650Z,9.40
2023-04-09T09:49:44.279Z,9.90
2023-04-09T09:54:53.387Z,11.20
2023-04-09T10:00:04.243Z,10.50
2023-04-09T10:05:52.613Z,9.40
2023-04-09T10:11:08.942Z,13.10
2023-04-09T10:16:15.482Z,11.10
2023-04-09T10:21:31.112Z,11.40
2023-04-09T10:26:41.637Z,14.20
2023-04-09T10:31:53.804Z,9.70
2023-04-09T10:36:59.978Z,10.40
2023-04-09T10:42:12.481Z,10.70
2023-04-09T10:47:36.098Z,10.60
2023-04-09T10:52:42.551Z,10.40
2023-04-09T10:57:48.248Z,9.10
2023-04-09T11:03:19.327Z,10.40
2023-04-09T11:08:27.857Z,10.40
2023-04-09T11:13:34.338Z,10.60
2023-04-09T11:18:40.969Z,11.50
2023-04-09T11:23:53.014Z,10.80
2023-04-09T11:28:58.873Z,11.60
2023-04-09T11:34:04.751Z,11.50
2023-04-09T11:39:10.408Z,10.50
2023-04-09T11:44:15.944Z,10.50
2023-04-09T11:49:22.513Z,8.40
2023-04-09T11:54:33.275Z,8.00
2023-04-09T11:59:41.251Z,9.60
2023-04-09T12:04:52.212Z,9.20
2023-04-09T12:10:02.993Z,9.30
2023-04-09T12:15:18.637Z,8.50
2023-04-09T12:20:39.533Z,11.50
2023-04-09T12:25:46.866Z,10.00
2023-04-09T12:30:52.407Z,7.80
2023-04-09T12:35:58.518Z,8.50
2023-04-09T12:41:04.468Z,8.30
2023-04-09T12:46:10.311Z,9.70
2023-04-09T12:51:16.212Z,8.50
2023-04-09T12:56:21.710Z,8.60
2023-04-09T13:01:27.326Z,9.10
2023-04-09T13:06:32.822Z,9.70
2023-04-09T13:11:38.267Z,8.50
2023-04-09T13:16:43.728Z,8.60
2023-04-09T13:21:49.183Z,11.40
2023-04-09T13:26:54.532Z,8.80
2023-04-09T13:32:02.608Z,9.50
2023-04-09T13:37:09.259Z,11.30
2023-04-09T13:42:17.132Z,6.40
2023-04-09T13:47:24.111Z,7.60
2023-04-09T13:52:30.444Z,7.40
2023-04-09T13:57:36.495Z,8.60
2023-04-09T14:02:42.225Z,7.80
2023-04-09T14:07:47.691Z,13.20
2023-04-09T14:12:53.304Z,16.20
2023-04-09T14:17:58.762Z,14.10
2023-04-09T14:23:04.191Z,9.00
2023-04-09T14:28:09.621Z,8.80
2023-04-09T14:33:15.290Z,7.90
2023-04-09T14:38:20.693Z,7.10
2023-04-09T14:43:26.205Z,7.50
2023-04-09T14:48:31.850Z,6.90
2023-04-09T14:53:37.467Z,7.90
2023-04-09T14:58:43.239Z,6.70
2023-04-09T15:03:48.680Z,6.70
2023-04-09T15:08:54.615Z,5.50
2023-04-09T15:14:00.414Z,6.20
2023-04-09T15:19:05.816Z,7.40
2023-04-09T15:24:11.522Z,6.00
2023-04-09T15:29:16.880Z,7.90
2023-04-09T15:34:23.740Z,6.80
2023-04-09T15:39:29.488Z,8.70
2023-04-09T15:44:36.291Z,6.80
2023-04-09T15:49:41.765Z,6.30
2023-04-09T15:54:47.077Z,8.60
2023-04-09T15:59:53.751Z,8.30
2023-04-09T16:04:59.171Z,6.90
2023-04-09T16:10:05.759Z,8.40
2023-04-09T16:15:12.287Z,6.50
2023-04-09T16:20:17.992Z,8.10
2023-04-09T16:25:24.544Z,8.50
2023-04-09T16:30:31.672Z,7.20
2023-04-09T16:35:39.471Z,5.90
2023-04-09T16:40:45.935Z,6.10
2023-04-09T16:45:52.288Z,7.10
2023-04-09T16:50:57.854Z,6.80
2023-04-09T16:56:04.237Z,8.20
2023-04-09T17:01:09.607Z,8.70
2023-04-09T17:06:15.150Z,7.20
2023-04-09T17:11:21.306Z,6.10
2023-04-09T17:16:27.796Z,8.80
2023-04-09T17:21:33.409Z,6.60
2023-04-09T17:26:39.123Z,6.30
2023-04-09T17:31:45.037Z,5.60
2023-04-09T17:36:56.442Z,7.80
2023-04-09T17:42:04.044Z,8.60
2023-04-09T17:47:09.496Z,11.00
2023-04-09T17:52:16.384Z,15.70
2023-04-09T17:57:22.191Z,14.80
2023-04-09T18:02:27.847Z,9.40
2023-04-09T18:07:34.024Z,15.40
2023-04-09T18:12:39.587Z,12.00
2023-04-09T18:17:45.386Z,10.70
2023-04-09T18:22:52.155Z,9.30
2023-04-09T18:27:57.610Z,9.30
2023-04-09T18:33:03.087Z,11.10
2023-04-09T18:38:08.983Z,13.60
2023-04-09T18:43:14.445Z,6.40
2023-04-09T18:48:20.388Z,8.00
2023-04-09T18:53:26.691Z,17.70
2023-04-09T18:58:33.750Z,16.70
2023-04-09T19:03:39.846Z,11.70
2023-04-09T19:08:46.624Z,10.90
2023-04-09T19:13:52.563Z,11.50
2023-04-09T19:18:58.482Z,17.80
2023-04-09T19:24:06.037Z,21.50
2023-04-09T19:29:12.165Z,19.10
2023-04-09T19:34:17.614Z,21.20
2023-04-09T19:39:23.502Z,15.40
2023-04-09T19:44:29.357Z,16.90
2023-04-09T19:49:35.472Z,15.50
2023-04-09T19:54:41.263Z,14.80
2023-04-09T19:59:48.588Z,17.30
2023-04-09T20:04:55.685Z,19.30
2023-04-09T20:10:01.112Z,23.80
2023-04-09T20:15:09.977Z,22.00
2023-04-09T20:20:20.211Z,36.20
2023-04-09T20:25:26.075Z,38.40
2023-04-09T20:30:32.362Z,37.30
2023-04-09T20:35:38.033Z,50.80
2023-04-09T20:40:43.536Z,32.70
2023-04-09T20:46:12.690Z,33.40
2023-04-09T20:51:18.245Z,30.40
2023-04-09T20:56:23.758Z,30.00
2023-04-09T21:01:29.455Z,25.70
2023-04-09T21:06:36.297Z,28.30
2023-04-09T21:11:41.843Z,24.20
2023-04-09T21:16:47.509Z,25.00
2023-04-09T21:21:53.457Z,22.10
2023-04-09T21:26:59.052Z,17.00
2023-04-09T21:32:04.556Z,19.20
2023-04-09T21:37:10.417Z,17.80
2023-04-09T21:42:15.870Z,18.90
2023-04-09T21:47:22.831Z,16.20
2023-04-09T21:52:28.298Z,15.00
2023-04-09T21:57:33.740Z,16.30
2023-04-09T22:02:40.092Z,17.30
2023-04-09T22:07:45.914Z,21.30
2023-04-09T22:12:51.375Z,24.60
2023-04-09T22:17:57.785Z,21.00
2023-04-09T22:23:03.496Z,17.20
2023-04-09T22:28:09.007Z,15.40
2023-04-09T22:33:14.482Z,18.00
2023-04-09T22:38:20.957Z,22.30
2023-04-09T22:43:26.543Z,20.50
2023-04-09T22:48:35.843Z,19.60
2023-04-09T22:53:43.966Z,19.10
2023-04-09T22:58:49.511Z,17.40
2023-04-09T23:03:55.081Z,16.50
2023-04-09T23:09:00.484Z,21.20
2023-04-09T23:14:06.194Z,20.30
2023-04-09T23:19:11.724Z,16.40
2023-04-09T23:24:17.690Z,12.30
2023-04-09T23:29:23.336Z,14.40
2023-04-09T23:34:28.831Z,16.60
2023-04-09T23:39:34.440Z,14.00
2023-04-09T23:44:40.021Z,14.00
2023-04-09T23:49:45.392Z,17.70
2023-04-09T23:54:51.582Z,16.80
2023-04-09T23:59:57.213Z,15.50
